Time;durP1;ratioP1;P1;durP2;ratioP2;P2;SDS_P1;SDS_P2;PMS_P1;PMS_P2;Temp;Humidity;BMP_temperature;BMP_pressure;BME280_temperature;BME280_humidity;BME280_pressure;Samples;Min_cycle;Max_cycle;Signal;HPM_P1;HPM_P2
2021/09/16 00:00:10;;;;;;;4.77;3.70;;;12.30;99.90;;;;;;4871354;29;20636;-73
2021/09/16 00:02:39;;;;;;;5.23;4.03;;;12.40;99.90;;;;;;4860564;29;20207;-73
2021/09/16 00:05:08;;;;;;;5.93;3.47;;;12.30;99.90;;;;;;4855890;29;20651;-73
2021/09/16 00:07:37;;;;;;;4.27;3.60;;;12.30;99.90;;;;;;4870725;29;20706;-73
2021/09/16 00:10:06;;;;;;;5.50;3.60;;;12.30;99.90;;;;;;4872400;29;20292;-72
2021/09/16 00:12:36;;;;;;;4.73;3.53;;;12.30;99.90;;;;;;4853690;29;20297;-73
2021/09/16 00:15:06;;;;;;;3.73;3.43;;;12.20;99.90;;;;;;4873628;29;20670;-73
2021/09/16 00:17:34;;;;;;;4.20;3.60;;;12.20;99.90;;;;;;4875522;29;20277;-73
2021/09/16 00:20:05;;;;;;;5.77;3.73;;;12.10;99.90;;;;;;4873867;29;20312;-73
2021/09/16 00:22:33;;;;;;;4.80;3.93;;;12.10;99.90;;;;;;4880180;29;20207;-73
2021/09/16 00:25:02;;;;;;;6.23;3.87;;;12.10;99.90;;;;;;4870782;29;20249;-72
2021/09/16 00:27:30;;;;;;;5.87;4.33;;;12.10;99.90;;;;;;4855377;29;20270;-73
2021/09/16 00:30:01;;;;;;;7.80;4.30;;;12.00;99.90;;;;;;4872086;29;20581;-72
2021/09/16 00:32:29;;;;;;;5.63;4.03;;;12.10;99.90;;;;;;4873846;29;20226;-72
2021/09/16 00:34:57;;;;;;;5.00;4.40;;;12.10;99.90;;;;;;4874789;29;20190;-72
2021/09/16 00:37:26;;;;;;;4.80;4.30;;;12.10;99.90;;;;;;4875554;29;20289;-72
2021/09/16 00:39:54;;;;;;;6.03;4.10;;;12.00;99.90;;;;;;4873071;29;20266;-72
2021/09/16 00:42:23;;;;;;;6.07;4.30;;;12.00;99.90;;;;;;4874539;29;20332;-72
2021/09/16 00:44:51;;;;;;;5.23;4.27;;;12.10;99.90;;;;;;4872238;29;20234;-72
2021/09/16 00:47:21;;;;;;;8.60;4.50;;;12.10;99.90;;;;;;4873007;29;20251;-72
2021/09/16 00:49:49;;;;;;;5.93;4.23;;;12.10;99.90;;;;;;4873283;29;20230;-72
2021/09/16 00:52:19;;;;;;;4.80;4.40;;;12.10;99.90;;;;;;4874822;29;20264;-72
2021/09/16 00:54:48;;;;;;;5.87;4.03;;;12.10;99.90;;;;;;4876396;29;20223;-73
2021/09/16 00:57:18;;;;;;;9.20;4.80;;;12.10;99.90;;;;;;4875931;29;20202;-72
2021/09/16 00:59:46;;;;;;;5.23;4.70;;;12.10;99.90;;;;;;4873626;29;20678;-72
2021/09/16 01:02:15;;;;;;;7.93;4.70;;;12.10;99.90;;;;;;4871393;29;20230;-72
2021/09/16 01:04:45;;;;;;;7.87;4.70;;;12.10;99.90;;;;;;4872450;29;20215;-72
2021/09/16 01:07:14;;;;;;;9.90;4.70;;;12.10;99.90;;;;;;4865973;29;20259;-73
2021/09/16 01:09:44;;;;;;;7.87;4.87;;;12.00;99.90;;;;;;4874673;29;20210;-72
2021/09/16 01:12:12;;;;;;;5.50;4.93;;;12.00;99.90;;;;;;4872499;29;20197;-72
2021/09/16 01:14:41;;;;;;;7.93;5.07;;;12.00;99.90;;;;;;4871302;29;20614;-72
2021/09/16 01:17:09;;;;;;;9.53;5.83;;;12.00;99.90;;;;;;4879362;29;20726;-72
2021/09/16 01:19:37;;;;;;;8.13;5.23;;;12.00;99.90;;;;;;4871722;29;20576;-72
2021/09/16 01:22:13;;;;;;;6.43;4.80;;;12.00;99.90;;;;;;4878335;29;20198;-72
2021/09/16 01:24:43;;;;;;;7.13;5.70;;;11.90;99.90;;;;;;4873099;29;20250;-73
2021/09/16 01:27:12;;;;;;;7.23;4.97;;;11.90;99.90;;;;;;4874490;29;20202;-73
2021/09/16 01:29:40;;;;;;;9.30;5.53;;;11.80;99.90;;;;;;4872572;29;20233;-72
2021/09/16 01:32:09;;;;;;;7.07;5.63;;;11.80;99.90;;;;;;4876078;29;20199;-72
2021/09/16 01:34:37;;;;;;;7.70;6.00;;;11.90;99.90;;;;;;4875072;29;20198;-72
2021/09/16 01:37:07;;;;;;;5.93;5.33;;;11.90;99.90;;;;;;4873039;29;20199;-72
2021/09/16 01:39:37;;;;;;;8.63;5.53;;;11.90;99.90;;;;;;4873290;29;20231;-73
2021/09/16 01:42:07;;;;;;;8.03;5.70;;;11.90;99.90;;;;;;4876532;29;20876;-72
2021/09/16 01:44:35;;;;;;;8.43;5.97;;;11.90;99.90;;;;;;4870480;29;20306;-72
2021/09/16 01:47:04;;;;;;;12.13;5.90;;;11.90;99.90;;;;;;4876801;29;20701;-72
2021/09/16 01:49:33;;;;;;;8.67;5.57;;;11.80;99.90;;;;;;4875230;29;20234;-72
2021/09/16 01:52:01;;;;;;;7.53;5.53;;;11.80;99.90;;;;;;4872751;29;20191;-72
2021/09/16 01:54:30;;;;;;;8.73;5.80;;;11.90;99.90;;;;;;4870334;29;20297;-72
2021/09/16 01:56:58;;;;;;;9.83;6.03;;;11.80;99.90;;;;;;4872035;29;20297;-72
2021/09/16 01:59:28;;;;;;;8.67;6.10;;;11.90;99.90;;;;;;4869926;29;20209;-73
2021/09/16 02:01:56;;;;;;;13.13;6.60;;;11.90;99.90;;;;;;4854699;29;20287;-72
2021/09/16 02:04:24;;;;;;;9.40;6.83;;;12.00;99.90;;;;;;4868237;29;20235;-72
2021/09/16 02:06:53;;;;;;;10.33;7.10;;;12.00;99.90;;;;;;4872171;29;20243;-72
2021/09/16 02:09:21;;;;;;;13.37;7.20;;;12.10;99.90;;;;;;4871645;29;20470;-72
2021/09/16 02:11:50;;;;;;;10.50;6.77;;;12.20;99.90;;;;;;4870389;29;21756;-72
2021/09/16 02:14:18;;;;;;;12.27;7.47;;;12.20;99.90;;;;;;4848983;29;20230;-72
2021/09/16 02:16:48;;;;;;;12.27;7.70;;;12.30;99.90;;;;;;4857139;29;20470;-72
2021/09/16 02:19:16;;;;;;;16.80;8.27;;;12.30;99.90;;;;;;4872946;29;20452;-72
2021/09/16 02:21:44;;;;;;;10.53;7.63;;;12.30;99.90;;;;;;4873036;29;20238;-72
2021/09/16 02:24:13;;;;;;;12.93;7.97;;;12.40;99.90;;;;;;4875552;29;20215;-72
2021/09/16 02:26:42;;;;;;;14.87;7.90;;;12.50;99.90;;;;;;4877083;29;20306;-72
2021/09/16 02:29:10;;;;;;;14.23;8.27;;;12.50;99.90;;;;;;4876130;29;20199;-72
2021/09/16 02:31:38;;;;;;;10.80;8.07;;;12.50;99.90;;;;;;4877917;29;20496;-72
2021/09/16 02:34:08;;;;;;;20.30;8.07;;;12.60;99.90;;;;;;4876715;29;20626;-72
2021/09/16 02:36:37;;;;;;;12.40;8.37;;;12.60;99.90;;;;;;4876667;29;20226;-72
2021/09/16 02:39:05;;;;;;;14.77;8.87;;;12.60;99.90;;;;;;4874685;29;20199;-72
2021/09/16 02:41:34;;;;;;;17.30;8.83;;;12.60;99.90;;;;;;4875457;29;20270;-72
2021/09/16 02:44:03;;;;;;;13.80;8.00;;;12.60;99.90;;;;;;4875953;29;20252;-72
2021/09/16 02:46:31;;;;;;;14.33;9.07;;;12.60;99.90;;;;;;4878358;29;20217;-73
2021/09/16 02:49:11;;;;;;;13.90;9.33;;;12.60;99.90;;;;;;4843590;29;20223;-72
2021/09/16 02:51:40;;;;;;;14.87;9.00;;;12.60;99.90;;;;;;4885981;29;20797;-72
2021/09/16 02:54:09;;;;;;;15.10;8.43;;;12.60;99.90;;;;;;4865128;29;20971;-72
2021/09/16 02:56:37;;;;;;;16.50;9.10;;;12.60;99.90;;;;;;4882980;29;20219;-72
2021/09/16 02:59:06;;;;;;;14.03;7.97;;;12.60;99.90;;;;;;4860071;29;20310;-72
2021/09/16 03:01:34;;;;;;;13.97;8.93;;;12.60;99.90;;;;;;4874780;29;20195;-72
2021/09/16 03:04:03;;;;;;;12.70;8.37;;;12.60;99.90;;;;;;4877508;29;20666;-72
2021/09/16 03:06:32;;;;;;;12.90;8.80;;;12.50;99.90;;;;;;4876424;29;20254;-73
2021/09/16 03:09:01;;;;;;;13.70;9.27;;;12.50;99.90;;;;;;4875529;29;20226;-72
2021/09/16 03:11:29;;;;;;;16.73;9.43;;;12.50;99.90;;;;;;4875324;29;20246;-72
2021/09/16 03:13:58;;;;;;;15.60;9.40;;;12.60;99.90;;;;;;4874934;29;20655;-72
2021/09/16 03:16:26;;;;;;;17.67;9.97;;;12.60;99.90;;;;;;4862228;29;20231;-72
2021/09/16 03:18:55;;;;;;;16.03;9.67;;;12.60;99.90;;;;;;4860887;29;20252;-72
2021/09/16 03:21:24;;;;;;;15.60;9.70;;;12.50;99.90;;;;;;4875233;29;20694;-72
2021/09/16 03:23:55;;;;;;;17.13;9.50;;;12.60;99.90;;;;;;4863998;29;20278;-72
2021/09/16 03:27:04;;;;;;;19.37;10.30;;;12.50;99.90;;;;;;4874251;29;20234;-72
2021/09/16 03:29:34;;;;;;;18.93;10.80;;;12.50;99.90;;;;;;4873643;29;20229;-72
2021/09/16 03:32:43;;;;;;;17.60;11.13;;;12.50;99.90;;;;;;4875089;29;20202;-72
2021/09/16 03:35:12;;;;;;;19.63;10.63;;;12.50;99.90;;;;;;4862086;29;20211;-72
2021/09/16 03:37:41;;;;;;;21.23;11.70;;;12.50;99.90;;;;;;4858563;29;20202;-72
2021/09/16 03:40:12;;;;;;;17.00;10.73;;;12.50;99.90;;;;;;4873501;29;20230;-72
2021/09/16 03:42:40;;;;;;;16.60;10.80;;;12.50;99.90;;;;;;4856217;29;20671;-72
2021/09/16 03:45:09;;;;;;;15.27;10.53;;;12.40;99.90;;;;;;4874923;29;20620;-72
2021/09/16 03:47:37;;;;;;;18.03;11.20;;;12.40;99.90;;;;;;4876303;29;20290;-72
2021/09/16 03:50:07;;;;;;;14.93;11.10;;;12.40;99.90;;;;;;4874190;29;20620;-72
2021/09/16 03:52:35;;;;;;;20.37;12.13;;;12.40;99.90;;;;;;4874383;29;20294;-72
2021/09/16 03:55:05;;;;;;;15.00;11.17;;;12.40;99.90;;;;;;4873270;29;20782;-72
2021/09/16 03:57:34;;;;;;;16.03;10.93;;;12.40;99.90;;;;;;4873786;29;21019;-72
2021/09/16 04:00:06;;;;;;;21.50;11.97;;;12.30;99.90;;;;;;4857756;29;20195;-72
2021/09/16 04:02:35;;;;;;;19.50;11.47;;;12.30;99.90;;;;;;4875731;29;20686;-72
2021/09/16 04:05:03;;;;;;;17.57;11.43;;;12.40;99.90;;;;;;4876464;29;20646;-72
2021/09/16 04:07:32;;;;;;;17.37;11.33;;;12.40;99.90;;;;;;4875874;29;20294;-72
2021/09/16 04:10:01;;;;;;;18.43;11.50;;;12.50;99.90;;;;;;4861556;29;20771;-72
2021/09/16 04:12:29;;;;;;;21.93;11.87;;;12.50;99.90;;;;;;4854897;29;20388;-72
2021/09/16 04:14:59;;;;;;;17.50;11.13;;;12.50;99.90;;;;;;4868472;29;20208;-72
2021/09/16 04:17:28;;;;;;;17.37;11.00;;;12.60;99.90;;;;;;4878074;29;20253;-72
2021/09/16 04:19:56;;;;;;;21.93;12.00;;;12.60;99.90;;;;;;4878739;29;20222;-72
2021/09/16 04:22:24;;;;;;;22.83;11.17;;;12.60;99.90;;;;;;4859161;29;20238;-72
2021/09/16 04:24:53;;;;;;;18.40;11.90;;;12.60;99.90;;;;;;4873417;29;20233;-72
2021/09/16 04:27:21;;;;;;;16.87;11.17;;;12.70;99.90;;;;;;4872692;29;20314;-72
2021/09/16 04:29:49;;;;;;;21.40;11.30;;;12.70;99.90;;;;;;4856416;29;20195;-72
2021/09/16 04:32:19;;;;;;;19.20;11.03;;;12.70;99.90;;;;;;4873735;29;20751;-72
2021/09/16 04:34:48;;;;;;;13.77;10.43;;;12.70;99.90;;;;;;4874830;29;20758;-72
2021/09/16 04:37:16;;;;;;;17.67;11.83;;;12.70;99.90;;;;;;4875116;29;20231;-72
2021/09/16 04:39:44;;;;;;;18.50;10.80;;;12.70;99.90;;;;;;4872654;29;21032;-72
2021/09/16 04:42:13;;;;;;;18.13;10.70;;;12.70;99.90;;;;;;4874174;29;20242;-72
2021/09/16 04:44:41;;;;;;;17.43;11.27;;;12.70;99.90;;;;;;4872440;29;20678;-72
2021/09/16 04:47:10;;;;;;;20.73;11.70;;;12.70;99.90;;;;;;4867679;29;20309;-72
2021/09/16 04:49:39;;;;;;;15.50;11.27;;;12.70;99.90;;;;;;4853796;29;20230;-72
2021/09/16 04:52:08;;;;;;;19.20;11.57;;;12.70;99.90;;;;;;4875543;29;20621;-72
2021/09/16 04:54:36;;;;;;;20.87;11.07;;;12.70;99.90;;;;;;4876066;29;20666;-72
2021/09/16 04:57:05;;;;;;;14.07;10.50;;;12.70;99.90;;;;;;4865662;29;20221;-72
2021/09/16 04:59:34;;;;;;;17.07;10.87;;;12.80;99.90;;;;;;4878055;29;20255;-72
2021/09/16 05:02:02;;;;;;;22.57;11.47;;;12.80;99.90;;;;;;4872679;29;20267;-72
2021/09/16 05:04:31;;;;;;;17.60;10.70;;;12.80;99.90;;;;;;4870372;29;20251;-72
2021/09/16 05:07:01;;;;;;;19.70;11.73;;;12.80;99.90;;;;;;4873139;29;20246;-72
2021/09/16 05:09:30;;;;;;;19.70;11.00;;;12.80;99.90;;;;;;4870157;29;20301;-72
2021/09/16 05:11:58;;;;;;;19.07;11.03;;;12.90;99.90;;;;;;4882981;29;20681;-72
2021/09/16 05:14:27;;;;;;;19.47;10.50;;;12.90;99.90;;;;;;4855132;29;20741;-72
2021/09/16 05:16:56;;;;;;;16.73;10.00;;;12.90;99.90;;;;;;4869404;29;20202;-72
2021/09/16 05:19:25;;;;;;;16.97;10.13;;;12.90;99.90;;;;;;4866254;29;20209;-72
2021/09/16 05:21:53;;;;;;;17.43;10.70;;;12.90;99.90;;;;;;4874240;29;20230;-72
2021/09/16 05:24:23;;;;;;;20.33;11.33;;;12.90;99.90;;;;;;4869990;29;20619;-72
2021/09/16 05:26:52;;;;;;;16.43;9.90;;;13.00;99.90;;;;;;4856677;29;20203;-72
2021/09/16 05:29:21;;;;;;;17.63;11.47;;;13.00;99.90;;;;;;4870784;29;20199;-73
2021/09/16 05:31:50;;;;;;;20.33;11.40;;;13.00;99.90;;;;;;4855700;29;20259;-72
2021/09/16 05:34:19;;;;;;;19.57;10.73;;;13.00;99.90;;;;;;4879936;29;20198;-72
2021/09/16 05:36:51;;;;;;;18.13;10.50;;;12.90;99.90;;;;;;4872515;29;20641;-72
2021/09/16 05:39:20;;;;;;;23.33;11.37;;;12.90;99.90;;;;;;4855924;29;20673;-72
2021/09/16 05:41:50;;;;;;;24.03;11.70;;;12.90;99.90;;;;;;4864242;29;20235;-72
2021/09/16 05:44:19;;;;;;;26.07;12.63;;;12.90;99.90;;;;;;4871612;29;20650;-72
2021/09/16 05:46:47;;;;;;;22.20;13.60;;;12.90;99.90;;;;;;4874944;29;20245;-72
2021/09/16 05:49:16;;;;;;;26.30;13.17;;;13.00;99.90;;;;;;4874229;29;20302;-72
2021/09/16 05:51:45;;;;;;;22.50;13.50;;;13.00;99.90;;;;;;4866174;29;20602;-72
2021/09/16 05:54:14;;;;;;;23.77;14.63;;;13.00;99.90;;;;;;4853252;29;20211;-72
2021/09/16 05:56:42;;;;;;;26.83;14.67;;;13.00;99.90;;;;;;4866928;29;20286;-72
2021/09/16 05:59:13;;;;;;;29.63;16.93;;;13.10;99.90;;;;;;4869562;29;20199;-72
2021/09/16 06:01:41;;;;;;;29.87;17.30;;;13.20;99.90;;;;;;4873844;29;20289;-72
2021/09/16 06:04:10;;;;;;;33.10;17.83;;;13.30;99.90;;;;;;4856836;29;20264;-72
2021/09/16 06:06:39;;;;;;;31.57;17.53;;;13.50;99.90;;;;;;4854089;29;20235;-72
2021/09/16 06:09:08;;;;;;;30.00;16.93;;;13.60;99.90;;;;;;4856335;29;20226;-72
2021/09/16 06:11:36;;;;;;;37.93;19.67;;;13.50;99.90;;;;;;4876885;29;20670;-72
2021/09/16 06:14:05;;;;;;;43.27;20.70;;;13.50;99.90;;;;;;4861528;29;20714;-72
2021/09/16 06:16:35;;;;;;;36.77;19.97;;;13.60;99.90;;;;;;4878514;29;20297;-72
2021/09/16 06:19:04;;;;;;;42.77;22.70;;;13.60;99.90;;;;;;4882882;29;20202;-72
2021/09/16 06:21:33;;;;;;;48.07;22.10;;;13.60;99.90;;;;;;4884913;29;20265;-72
2021/09/16 06:24:02;;;;;;;39.13;21.03;;;13.60;99.90;;;;;;4877499;29;20620;-72
2021/09/16 06:26:30;;;;;;;47.70;23.13;;;13.60;99.90;;;;;;4866215;29;20300;-72
2021/09/16 06:29:02;;;;;;;60.10;26.13;;;13.60;99.90;;;;;;4869580;29;20694;-72
2021/09/16 06:31:33;;;;;;;50.97;25.53;;;13.70;99.90;;;;;;4878668;29;20206;-72
2021/09/16 06:34:04;;;;;;;50.40;23.97;;;13.70;99.90;;;;;;4869360;29;20206;-72
2021/09/16 06:36:33;;;;;;;60.77;27.40;;;13.80;99.90;;;;;;4872573;29;20199;-73
2021/09/16 06:39:01;;;;;;;61.90;27.83;;;13.80;99.90;;;;;;4876592;29;20197;-72
2021/09/16 06:41:30;;;;;;;60.67;28.20;;;13.90;99.90;;;;;;4867612;29;20247;-73
2021/09/16 06:43:59;;;;;;;62.13;29.50;;;14.00;99.90;;;;;;4867866;29;20243;-73
2021/09/16 06:46:28;;;;;;;69.60;29.60;;;14.20;99.90;;;;;;4873945;29;20203;-73
2021/09/16 06:48:57;;;;;;;60.10;29.77;;;14.30;99.90;;;;;;4872885;29;20219;-73
2021/09/16 06:51:27;;;;;;;64.30;29.90;;;14.40;99.90;;;;;;4863906;29;20206;-72
2021/09/16 06:54:01;;;;;;;62.93;28.97;;;14.60;99.90;;;;;;4866209;29;20203;-73
2021/09/16 06:56:30;;;;;;;55.40;27.93;;;14.70;99.90;;;;;;4871009;29;20297;-73
2021/09/16 06:58:59;;;;;;;54.97;27.03;;;14.80;99.90;;;;;;4874683;29;20281;-74
2021/09/16 07:01:28;;;;;;;54.47;27.60;;;14.80;99.90;;;;;;4867410;29;20297;-73
2021/09/16 07:03:57;;;;;;;49.83;25.33;;;14.80;99.90;;;;;;4869354;29;20464;-73
2021/09/16 07:06:43;;;;;;;49.23;25.33;;;14.80;99.90;;;;;;4854198;29;20260;-73
2021/09/16 07:09:11;;;;;;;52.20;25.83;;;14.90;99.90;;;;;;4876262;29;20279;-74
2021/09/16 07:11:40;;;;;;;46.93;25.03;;;15.00;99.90;;;;;;4868707;29;20203;-74
2021/09/16 07:14:09;;;;;;;42.93;23.53;;;15.10;99.90;;;;;;4868540;29;20198;-74
2021/09/16 07:16:38;;;;;;;49.73;25.90;;;15.20;99.90;;;;;;4866415;29;20391;-74
2021/09/16 07:19:07;;;;;;;41.60;23.50;;;15.30;99.90;;;;;;4870349;29;20239;-74
2021/09/16 07:21:35;;;;;;;42.23;23.23;;;15.40;99.90;;;;;;4874487;29;20297;-73
2021/09/16 07:24:07;;;;;;;35.73;21.73;;;15.50;99.90;;;;;;4877019;29;20568;-73
2021/09/16 07:26:37;;;;;;;38.90;21.37;;;15.60;99.90;;;;;;4859561;29;20269;-74
2021/09/16 07:29:06;;;;;;;37.90;21.13;;;15.70;99.90;;;;;;4874452;29;20290;-73
2021/09/16 07:31:35;;;;;;;38.60;21.33;;;15.80;99.90;;;;;;4871906;29;20344;-74
2021/09/16 07:34:04;;;;;;;35.37;20.43;;;15.90;99.90;;;;;;4869738;29;20327;-73
2021/09/16 07:36:32;;;;;;;31.50;19.73;;;16.00;99.90;;;;;;4870420;29;20346;-73
2021/09/16 07:39:01;;;;;;;33.17;20.37;;;16.10;99.90;;;;;;4868505;29;20251;-74
2021/09/16 07:41:32;;;;;;;37.50;19.83;;;16.20;99.90;;;;;;4866961;29;20270;-73
2021/09/16 07:44:01;;;;;;;34.20;19.83;;;16.40;99.90;;;;;;4869707;29;20268;-73
2021/09/16 07:46:30;;;;;;;31.33;19.13;;;16.40;99.90;;;;;;4871505;29;20263;-73
2021/09/16 07:49:00;;;;;;;31.27;18.47;;;16.50;99.90;;;;;;4873579;29;20327;-73
2021/09/16 07:51:28;;;;;;;32.10;18.10;;;16.60;99.90;;;;;;4872854;29;20323;-74
2021/09/16 07:53:57;;;;;;;31.27;18.37;;;16.70;99.90;;;;;;4855075;29;20291;-74
2021/09/16 07:56:26;;;;;;;26.90;17.77;;;16.80;99.90;;;;;;4877521;29;20307;-73
2021/09/16 07:58:56;;;;;;;29.03;17.13;;;16.80;99.90;;;;;;4872080;29;20281;-73
2021/09/16 08:01:26;;;;;;;28.53;17.17;;;16.80;99.90;;;;;;4857538;29;20207;-73
2021/09/16 08:03:55;;;;;;;27.40;16.83;;;16.90;99.90;;;;;;4871566;29;20274;-74
2021/09/16 08:06:24;;;;;;;27.17;16.10;;;16.90;99.90;;;;;;4842109;29;20750;-73
2021/09/16 08:08:53;;;;;;;27.10;16.00;;;17.10;99.90;;;;;;4877333;29;20220;-74
2021/09/16 08:11:23;;;;;;;26.10;16.27;;;17.20;99.90;;;;;;4873034;29;20715;-73
2021/09/16 08:13:52;;;;;;;28.00;16.93;;;17.30;99.90;;;;;;4867575;29;20208;-74
2021/09/16 08:16:23;;;;;;;28.07;16.13;;;17.40;99.90;;;;;;4874729;29;20194;-73
2021/09/16 08:18:52;;;;;;;22.40;14.60;;;17.40;99.90;;;;;;4874140;29;20223;-74
2021/09/16 08:21:22;;;;;;;24.30;14.60;;;17.50;99.90;;;;;;4872654;29;20237;-74
2021/09/16 08:23:51;;;;;;;22.40;14.93;;;17.60;99.90;;;;;;4856487;29;20287;-73
2021/09/16 08:26:20;;;;;;;21.27;13.23;;;17.70;99.90;;;;;;4861595;29;20237;-73
2021/09/16 08:28:48;;;;;;;23.47;13.87;;;17.70;99.90;;;;;;4873692;29;20246;-73
2021/09/16 08:31:17;;;;;;;24.23;13.87;;;17.80;99.90;;;;;;4867179;29;20238;-73
2021/09/16 08:33:48;;;;;;;20.70;13.67;;;17.90;99.90;;;;;;4869208;29;20209;-73
2021/09/16 08:36:18;;;;;;;19.43;13.73;;;18.10;99.90;;;;;;4876812;29;20211;-73
2021/09/16 08:38:47;;;;;;;20.33;14.40;;;18.30;99.90;;;;;;4876293;29;20541;-73
2021/09/16 08:41:16;;;;;;;22.73;13.93;;;18.30;99.90;;;;;;4870773;29;20340;-73
2021/09/16 08:43:45;;;;;;;20.17;13.37;;;18.30;99.90;;;;;;4867953;29;20231;-73
2021/09/16 08:46:13;;;;;;;20.27;13.50;;;18.40;99.90;;;;;;4865542;29;20235;-73
2021/09/16 08:48:44;;;;;;;19.53;12.07;;;18.50;99.90;;;;;;4873534;29;20219;-74
2021/09/16 08:51:14;;;;;;;16.40;12.07;;;18.50;99.90;;;;;;4872542;29;20230;-73
2021/09/16 08:53:45;;;;;;;20.27;13.07;;;18.50;99.90;;;;;;4869334;29;20294;-73
2021/09/16 08:56:15;;;;;;;19.57;12.77;;;18.60;99.90;;;;;;4879665;29;20555;-73
2021/09/16 08:58:46;;;;;;;18.57;12.20;;;18.70;99.90;;;;;;4874424;29;20294;-73
2021/09/16 09:01:16;;;;;;;19.90;12.10;;;18.80;99.90;;;;;;4874173;29;20191;-73
2021/09/16 09:03:45;;;;;;;17.30;11.77;;;18.80;99.90;;;;;;4865304;29;20205;-73
2021/09/16 09:06:32;;;;;;;16.43;11.00;;;18.80;99.90;;;;;;4867519;29;20281;-73
2021/09/16 09:09:12;;;;;;;15.23;11.27;;;19.00;99.90;;;;;;4870355;29;20313;-73
2021/09/16 09:12:09;;;;;;;14.50;9.70;;;19.20;99.90;;;;;;4867327;29;20297;-73
2021/09/16 09:14:40;;;;;;;12.33;9.47;;;19.30;99.90;;;;;;4839070;29;20274;-72
2021/09/16 09:17:21;;;;;;;15.43;9.43;;;19.40;99.90;;;;;;4871337;29;20262;-73
2021/09/16 09:19:52;;;;;;;9.50;8.17;;;19.30;99.90;;;;;;4874487;29;20259;-72
2021/09/16 09:22:29;;;;;;;8.00;5.83;;;19.30;99.90;;;;;;4871538;29;20234;-73
2021/09/16 09:25:01;;;;;;;4.70;4.27;;;19.30;99.90;;;;;;4869677;29;20230;-72
2021/09/16 09:27:31;;;;;;;3.83;3.53;;;19.40;99.90;;;;;;4874748;29;20730;-73
2021/09/16 09:30:12;;;;;;;5.60;4.87;;;19.50;99.90;;;;;;4866678;29;20741;-72
2021/09/16 09:32:54;;;;;;;4.83;3.70;;;19.50;99.90;;;;;;4868851;29;20198;-72
2021/09/16 09:35:28;;;;;;;6.73;5.23;;;19.60;99.90;;;;;;4871980;29;20226;-72
2021/09/16 09:38:00;;;;;;;6.03;5.43;;;19.60;99.90;;;;;;4870512;29;20198;-72
2021/09/16 09:40:31;;;;;;;7.73;5.40;;;19.70;99.90;;;;;;4877336;29;20215;-72
2021/09/16 09:43:20;;;;;;;9.17;6.60;;;19.70;99.90;;;;;;4872297;29;20237;-72
2021/09/16 09:46:08;;;;;;;6.57;5.90;;;19.70;99.90;;;;;;4871211;29;20293;-72
2021/09/16 09:48:41;;;;;;;8.03;6.30;;;19.70;99.90;;;;;;4874899;29;20229;-72
2021/09/16 09:51:12;;;;;;;9.83;7.50;;;20.10;99.90;;;;;;4877422;29;20198;-72
2021/09/16 09:53:44;;;;;;;10.73;6.80;;;20.10;99.90;;;;;;4871809;29;20229;-72
2021/09/16 09:56:33;;;;;;;8.67;6.63;;;20.10;99.90;;;;;;4869041;29;20294;-73
2021/09/16 09:59:02;;;;;;;8.53;6.13;;;20.50;99.90;;;;;;4871505;29;20195;-72
2021/09/16 10:01:33;;;;;;;7.27;6.23;;;20.50;99.90;;;;;;4871394;29;20294;-72
2021/09/16 10:04:24;;;;;;;9.60;7.40;;;20.60;99.90;;;;;;4854470;29;20223;-72
2021/09/16 10:06:53;;;;;;;9.33;7.50;;;20.50;99.90;;;;;;4866846;29;20206;-72
2021/09/16 10:09:24;;;;;;;9.13;7.23;;;20.60;99.90;;;;;;4873534;29;20226;-72
2021/09/16 10:11:55;;;;;;;9.63;7.07;;;20.60;99.90;;;;;;4876817;29;20599;-72
2021/09/16 10:14:24;;;;;;;11.20;7.83;;;20.70;99.90;;;;;;4873343;29;20237;-72
2021/09/16 10:16:53;;;;;;;10.50;8.10;;;20.80;99.90;;;;;;4870398;29;20203;-72
2021/09/16 10:19:22;;;;;;;10.50;8.40;;;21.00;99.90;;;;;;4868418;29;20199;-72
2021/09/16 10:21:51;;;;;;;13.03;8.73;;;20.90;99.90;;;;;;4869123;29;20237;-72
2021/09/16 10:24:20;;;;;;;10.33;8.23;;;20.90;99.90;;;;;;4868074;29;20596;-72
2021/09/16 10:26:50;;;;;;;13.03;9.53;;;21.00;99.90;;;;;;4873736;29;20295;-72
2021/09/16 10:29:36;;;;;;;10.73;7.77;;;21.30;99.90;;;;;;4871400;29;20254;-72
2021/09/16 10:32:41;;;;;;;8.87;7.00;;;21.30;99.90;;;;;;4870454;29;20195;-72
2021/09/16 10:35:21;;;;;;;7.33;6.17;;;21.00;99.90;;;;;;4870394;29;20227;-72
2021/09/16 10:37:50;;;;;;;6.83;6.10;;;20.70;99.90;;;;;;4856088;29;20294;-72
2021/09/16 10:40:23;;;;;;;7.30;6.50;;;20.50;99.90;;;;;;4875783;29;20920;-72
2021/09/16 10:42:55;;;;;;;7.27;6.57;;;20.60;99.90;;;;;;4871586;29;20195;-72
2021/09/16 10:45:33;;;;;;;9.33;6.73;;;20.70;99.90;;;;;;4873466;29;20266;-73
2021/09/16 10:48:33;;;;;;;7.87;7.07;;;21.00;99.90;;;;;;4873584;29;20202;-73
2021/09/16 10:51:07;;;;;;;7.63;6.10;;;21.00;99.90;;;;;;4879064;29;20225;-72
2021/09/16 10:53:47;;;;;;;7.83;6.10;;;20.90;99.90;;;;;;4873636;29;20227;-72
2021/09/16 10:56:40;;;;;;;9.43;6.83;;;21.00;99.90;;;;;;4866660;29;20202;-72
2021/09/16 10:59:11;;;;;;;7.60;6.40;;;21.40;99.90;;;;;;4879132;29;20186;-72
2021/09/16 11:01:59;;;;;;;7.07;6.07;;;21.60;99.90;;;;;;4875844;29;20263;-72
2021/09/16 11:05:02;;;;;;;7.03;5.73;;;21.70;99.90;;;;;;4871565;29;20210;-72
2021/09/16 11:07:52;;;;;;;6.87;5.73;;;21.90;99.90;;;;;;4877364;29;20210;-72
2021/09/16 11:10:50;;;;;;;6.97;5.57;;;22.10;99.90;;;;;;4876438;29;20215;-72
2021/09/16 11:13:51;;;;;;;7.57;5.63;;;22.10;99.90;;;;;;4874113;29;20195;-72
2021/09/16 11:16:28;;;;;;;6.33;5.80;;;21.80;99.90;;;;;;4870440;29;20195;-72
2021/09/16 11:19:05;;;;;;;6.70;6.03;;;21.80;99.90;;;;;;4870359;29;20229;-72
2021/09/16 11:21:34;;;;;;;7.60;6.23;;;21.90;99.90;;;;;;4876610;29;20673;-72
2021/09/16 11:24:08;;;;;;;6.70;6.00;;;22.10;99.90;;;;;;4877568;29;20234;-72
2021/09/16 11:26:37;;;;;;;7.03;6.03;;;22.20;99.90;;;;;;4859764;29;20203;-72
2021/09/16 11:29:09;;;;;;;9.10;6.50;;;22.50;99.90;;;;;;4873670;29;20315;-72
2021/09/16 11:31:39;;;;;;;5.53;5.03;;;22.80;99.90;;;;;;4868929;29;20325;-72
2021/09/16 11:34:17;;;;;;;5.80;5.30;;;23.10;99.90;;;;;;4876035;29;20204;-72
2021/09/16 11:37:28;;;;;;;5.03;4.63;;;23.00;99.90;;;;;;4874002;29;20204;-72
2021/09/16 11:40:05;;;;;;;5.90;5.33;;;22.70;99.90;;;;;;4881236;29;20202;-72
2021/09/16 11:42:35;;;;;;;7.53;5.83;;;22.50;99.90;;;;;;4874027;29;20700;-72
2021/09/16 11:45:13;;;;;;;6.17;5.57;;;22.40;99.90;;;;;;4871581;29;20668;-72
2021/09/16 11:47:46;;;;;;;5.97;5.33;;;22.30;99.90;;;;;;4879545;29;20235;-72
2021/09/16 11:50:31;;;;;;;5.10;4.13;;;22.10;99.90;;;;;;4873902;29;20219;-72
2021/09/16 11:53:03;;;;;;;4.50;4.10;;;21.90;99.90;;;;;;4880965;29;20266;-72
2021/09/16 11:55:34;;;;;;;4.23;3.90;;;22.00;99.90;;;;;;4872038;29;20679;-72
2021/09/16 11:58:07;;;;;;;4.60;4.00;;;22.10;99.90;;;;;;4875028;29;20230;-72
2021/09/16 12:00:43;;;;;;;4.70;4.40;;;22.40;99.90;;;;;;4876187;29;20227;-72
2021/09/16 12:03:17;;;;;;;4.17;3.87;;;22.70;99.90;;;;;;4873873;29;20216;-72
2021/09/16 12:05:49;;;;;;;5.47;4.50;;;23.10;99.90;;;;;;4874718;29;20554;-72
2021/09/16 12:08:24;;;;;;;4.13;3.80;;;23.50;99.90;;;;;;4856243;29;20334;-72
2021/09/16 12:10:57;;;;;;;4.77;4.37;;;23.40;99.90;;;;;;4873332;29;20276;-72
2021/09/16 12:13:27;;;;;;;5.23;3.60;;;23.40;99.90;;;;;;4876808;29;20202;-72
2021/09/16 12:16:05;;;;;;;4.20;3.90;;;23.30;99.90;;;;;;4872417;29;20692;-72
2021/09/16 12:18:37;;;;;;;5.23;4.60;;;23.10;99.90;;;;;;4873498;29;20290;-72
2021/09/16 12:21:07;;;;;;;4.17;3.80;;;22.80;99.90;;;;;;4868251;29;20200;-72
2021/09/16 12:23:37;;;;;;;3.97;3.77;;;22.60;99.90;;;;;;4875702;29;20260;-72
2021/09/16 12:26:17;;;;;;;4.30;4.00;;;22.50;99.90;;;;;;4879022;29;20199;-72
2021/09/16 12:28:57;;;;;;;5.50;4.43;;;22.20;99.90;;;;;;4871638;29;20235;-72
2021/09/16 12:31:29;;;;;;;5.30;4.90;;;22.10;99.90;;;;;;4874559;29;20287;-72
2021/09/16 12:34:03;;;;;;;6.47;5.83;;;21.90;99.90;;;;;;4872123;29;20210;-72
2021/09/16 12:36:33;;;;;;;6.73;6.13;;;21.80;99.90;;;;;;4858435;29;20203;-72
2021/09/16 12:39:06;;;;;;;8.23;5.80;;;21.70;99.90;;;;;;4867359;29;20254;-72
2021/09/16 12:41:41;;;;;;;6.07;5.57;;;21.60;99.90;;;;;;4876420;29;20231;-72
2021/09/16 12:44:13;;;;;;;6.87;6.23;;;21.70;99.90;;;;;;4873540;29;20229;-73
2021/09/16 12:46:53;;;;;;;7.57;6.63;;;21.70;99.90;;;;;;4861047;29;20581;-72
2021/09/16 12:49:49;;;;;;;6.67;6.07;;;21.70;99.90;;;;;;4877554;29;20225;-72
2021/09/16 12:52:22;;;;;;;7.33;6.67;;;21.80;99.90;;;;;;4869443;29;20253;-72
2021/09/16 12:54:54;;;;;;;10.90;7.10;;;21.90;99.90;;;;;;4875045;29;20203;-72
2021/09/16 12:57:24;;;;;;;6.80;6.13;;;22.00;99.90;;;;;;4877108;29;20290;-72